Time;durP1;ratioP1;P1;durP2;ratioP2;P2;SDS_P1;SDS_P2;PMS_P1;PMS_P2;Temp;Humidity;BMP_temperature;BMP_pressure;BME280_temperature;BME280_humidity;BME280_pressure;Samples;Min_cycle;Max_cycle;Signal;HPM_P1;HPM_P2
2023/10/01 00:00:28;;;;;;;23.45;8.98;;;15.40;99.90;;;;;;5012371;28;20049;-58
2023/10/01 00:02:59;;;;;;;23.65;10.30;;;15.40;99.90;;;;;;5015653;28;20048;-58
2023/10/01 00:05:27;;;;;;;27.35;10.30;;;15.40;99.90;;;;;;5031800;28;20485;-58
2023/10/01 00:07:55;;;;;;;28.75;11.48;;;15.50;99.90;;;;;;5031537;28;20481;-58
2023/10/01 00:10:23;;;;;;;27.90;10.50;;;15.50;99.90;;;;;;5031363;28;20049;-58
2023/10/01 00:12:54;;;;;;;24.15;10.05;;;15.50;99.90;;;;;;5037695;28;20057;-57
2023/10/01 00:15:25;;;;;;;20.65;9.98;;;15.50;99.90;;;;;;5013327;28;20045;-57
2023/10/01 00:17:53;;;;;;;22.65;10.57;;;15.50;99.90;;;;;;5023553;28;20045;-58
2023/10/01 00:20:25;;;;;;;23.27;10.52;;;15.50;99.90;;;;;;5031754;28;20440;-58
2023/10/01 00:22:59;;;;;;;23.27;9.68;;;15.60;99.90;;;;;;5034999;28;20451;-58
2023/10/01 00:25:30;;;;;;;26.73;10.73;;;15.60;99.90;;;;;;5051570;28;20376;-58
2023/10/01 00:27:59;;;;;;;26.60;10.18;;;15.60;99.90;;;;;;5033354;28;20385;-58
2023/10/01 00:30:34;;;;;;;28.55;11.38;;;15.60;99.90;;;;;;5026050;28;20057;-58
2023/10/01 00:33:06;;;;;;;33.55;12.18;;;15.60;99.90;;;;;;5014866;28;20069;-58
2023/10/01 00:35:39;;;;;;;28.80;10.82;;;15.60;99.90;;;;;;5031134;28;20047;-58
2023/10/01 00:38:08;;;;;;;25.58;10.07;;;15.70;99.90;;;;;;5034096;28;20056;-58
2023/10/01 00:40:36;;;;;;;22.67;9.10;;;15.60;99.90;;;;;;5030904;28;20045;-58
2023/10/01 00:43:05;;;;;;;21.85;10.07;;;15.70;99.90;;;;;;5029017;28;20064;-58
2023/10/01 00:45:34;;;;;;;26.58;11.00;;;15.70;99.90;;;;;;5013315;28;20052;-58
2023/10/01 00:48:11;;;;;;;20.33;10.40;;;15.70;99.90;;;;;;5026725;28;20049;-58
2023/10/01 00:50:38;;;;;;;22.52;8.82;;;15.70;99.90;;;;;;5011102;28;20407;-58
2023/10/01 00:53:08;;;;;;;29.35;9.73;;;15.70;99.90;;;;;;5028844;28;20045;-58
2023/10/01 00:55:37;;;;;;;;;;;15.70;99.90;;;;;;5051241;28;20051;-58
2023/10/01 00:58:05;;;;;;;26.40;11.15;;;15.70;99.90;;;;;;5047857;28;19929;-58
2023/10/01 01:00:34;;;;;;;23.70;10.15;;;15.70;99.90;;;;;;5030004;28;20045;-58
2023/10/01 01:03:09;;;;;;;26.38;11.45;;;15.80;99.90;;;;;;5026384;28;20052;-58
2023/10/01 01:05:41;;;;;;;23.05;10.48;;;15.80;99.90;;;;;;5026336;28;20045;-58
2023/10/01 01:08:22;;;;;;;23.45;10.45;;;15.80;99.90;;;;;;5028058;28;20046;-58
2023/10/01 01:10:51;;;;;;;25.67;10.00;;;15.80;99.90;;;;;;5030444;28;20044;-58
2023/10/01 01:13:24;;;;;;;28.97;10.97;;;15.80;99.90;;;;;;5036269;28;20053;-58
2023/10/01 01:15:52;;;;;;;25.25;9.32;;;15.90;99.90;;;;;;5011943;28;20299;-58
2023/10/01 01:18:21;;;;;;;28.70;11.20;;;15.80;99.90;;;;;;5015390;28;20508;-58
2023/10/01 01:20:57;;;;;;;22.63;11.45;;;15.90;99.90;;;;;;5029192;28;20056;-58
2023/10/01 01:23:30;;;;;;;24.67;10.38;;;15.90;99.90;;;;;;5041671;28;20488;-58
2023/10/01 01:25:59;;;;;;;20.75;9.05;;;15.90;99.90;;;;;;5050079;28;20549;-59
2023/10/01 01:28:30;;;;;;;21.27;8.70;;;15.90;99.90;;;;;;5048622;28;20037;-58
2023/10/01 01:31:04;;;;;;;26.90;9.80;;;15.90;99.90;;;;;;5014975;28;20053;-58
2023/10/01 01:33:40;;;;;;;21.15;9.98;;;16.00;99.90;;;;;;5031440;28;20045;-58
2023/10/01 01:36:10;;;;;;;25.65;10.18;;;16.00;99.90;;;;;;5033445;28;20041;-59
2023/10/01 01:39:12;;;;;;;24.85;9.50;;;16.00;99.90;;;;;;5039954;28;20049;-58
2023/10/01 01:41:47;;;;;;;28.60;9.75;;;16.00;99.90;;;;;;5033936;28;20064;-58
2023/10/01 01:44:16;;;;;;;24.08;9.98;;;16.00;99.90;;;;;;5032084;28;20053;-58
2023/10/01 01:46:50;;;;;;;23.63;9.70;;;16.00;99.90;;;;;;5021211;28;20052;-59
2023/10/01 01:49:19;;;;;;;16.45;7.93;;;16.00;99.90;;;;;;5011770;28;20049;-59
2023/10/01 01:51:57;;;;;;;16.20;7.75;;;16.00;99.90;;;;;;5030319;28;20512;-58
2023/10/01 01:54:42;;;;;;;18.00;8.43;;;16.10;99.90;;;;;;5052765;28;20057;-58
2023/10/01 01:57:14;;;;;;;15.85;7.72;;;16.10;99.90;;;;;;5051860;28;20052;-58
2023/10/01 01:59:43;;;;;;;17.50;8.68;;;16.10;99.90;;;;;;5037666;28;20041;-58
2023/10/01 02:02:11;;;;;;;17.27;7.80;;;16.10;99.90;;;;;;5032814;28;20042;-58
2023/10/01 02:05:00;;;;;;;15.82;8.27;;;16.20;99.90;;;;;;5031487;28;20049;-58
2023/10/01 02:07:33;;;;;;;13.13;7.10;;;16.20;99.90;;;;;;5033357;28;20045;-58
2023/10/01 02:10:04;;;;;;;16.27;8.23;;;16.20;99.90;;;;;;5031610;28;20052;-58
2023/10/01 02:12:36;;;;;;;23.95;8.00;;;16.20;99.90;;;;;;5032223;28;20053;-58
2023/10/01 02:15:08;;;;;;;17.45;7.40;;;16.20;99.90;;;;;;5031322;28;20045;-59
2023/10/01 02:17:36;;;;;;;16.50;7.75;;;16.20;99.90;;;;;;5032192;28;20054;-59
2023/10/01 02:20:10;;;;;;;19.13;7.82;;;16.20;99.90;;;;;;5045643;28;20045;-58
2023/10/01 02:22:40;;;;;;;15.50;7.13;;;16.30;99.90;;;;;;5037942;28;20044;-59
2023/10/01 02:25:10;;;;;;;11.40;7.20;;;16.30;99.90;;;;;;5046946;28;20053;-59
2023/10/01 02:27:48;;;;;;;11.30;6.45;;;16.30;99.90;;;;;;5032480;28;20052;-59
2023/10/01 02:30:23;;;;;;;17.33;6.25;;;16.30;99.90;;;;;;5032393;28;20064;-59
2023/10/01 02:33:15;;;;;;;16.23;5.80;;;16.30;99.90;;;;;;5052418;28;20484;-58
2023/10/01 02:35:41;;;;;;;15.65;6.30;;;16.30;99.90;;;;;;5042591;28;20412;-59
2023/10/01 02:41:08;;;;;;;13.40;6.03;;;16.30;99.90;;;;;;5012638;28;20057;-58
2023/10/01 02:43:41;;;;;;;15.68;5.68;;;16.40;99.90;;;;;;5012433;28;20057;-59
2023/10/01 02:46:12;;;;;;;11.57;5.07;;;16.40;99.90;;;;;;5024925;28;20050;-59
2023/10/01 02:48:41;;;;;;;12.75;6.20;;;16.40;99.90;;;;;;5030916;28;20045;-59
2023/10/01 02:51:15;;;;;;;12.15;5.75;;;16.40;99.90;;;;;;5032227;28;20056;-59
2023/10/01 02:56:37;;;;;;;8.73;4.80;;;16.40;99.90;;;;;;5034545;28;20049;-59
2023/10/01 02:59:12;;;;;;;12.40;5.63;;;16.40;99.90;;;;;;5031755;28;20045;-59
2023/10/01 03:01:48;;;;;;;10.02;5.50;;;16.40;99.90;;;;;;5030812;28;20057;-59
2023/10/01 03:04:16;;;;;;;12.20;5.28;;;16.40;99.90;;;;;;5032028;28;20045;-59
2023/10/01 03:06:54;;;;;;;12.00;5.23;;;16.40;99.90;;;;;;5032056;28;20045;-59
2023/10/01 03:09:34;;;;;;;9.05;4.78;;;16.40;99.90;;;;;;5031566;28;20290;-60
2023/10/01 03:15:16;;;;;;;9.43;3.95;;;16.40;99.90;;;;;;5031671;28;20049;-59
2023/10/01 03:18:06;;;;;;;10.38;4.20;;;16.40;99.90;;;;;;5029501;28;20045;-59
2023/10/01 03:23:37;;;;;;;7.03;3.75;;;16.50;99.90;;;;;;5040359;28;20045;-58
2023/10/01 03:26:07;;;;;;;8.40;3.90;;;16.40;99.90;;;;;;5040309;28;20071;-58
2023/10/01 03:31:25;;;;;;;6.68;3.53;;;16.50;99.90;;;;;;5031671;28;20056;-58
2023/10/01 03:33:53;;;;;;;12.67;4.10;;;16.50;99.90;;;;;;5031556;28;20044;-58
2023/10/01 03:36:25;;;;;;;7.18;2.67;;;16.50;99.90;;;;;;5031415;28;20041;-59
2023/10/01 03:38:59;;;;;;;7.78;3.70;;;16.50;99.90;;;;;;5030330;28;20535;-58
2023/10/01 03:41:52;;;;;;;6.70;3.65;;;16.50;99.90;;;;;;5031127;28;20060;-58
2023/10/01 03:44:15;;;;;;;4.65;2.45;;;16.50;99.90;;;;;;5031297;28;20045;-58
2023/10/01 03:46:45;;;;;;;5.55;2.28;;;16.50;99.90;;;;;;5030977;28;20049;-59
2023/10/01 03:51:59;;;;;;;3.92;2.08;;;16.60;99.90;;;;;;5030977;28;20540;-59
2023/10/01 03:57:18;;;;;;;4.65;1.90;;;16.60;99.90;;;;;;5011585;28;20433;-59
2023/10/01 03:59:53;;;;;;;2.90;1.73;;;16.60;99.90;;;;;;5011572;28;20050;-59
2023/10/01 04:02:42;;;;;;;4.22;1.70;;;16.70;99.90;;;;;;5011365;28;20108;-58
2023/10/01 04:05:30;;;;;;;3.72;1.70;;;16.70;99.90;;;;;;5019809;28;20038;-58
2023/10/01 04:08:00;;;;;;;2.88;1.50;;;16.70;99.90;;;;;;5044942;28;20401;-58
2023/10/01 04:13:00;;;;;;;3.00;1.60;;;16.70;99.90;;;;;;5030849;28;19921;-59
2023/10/01 04:15:31;;;;;;;2.25;1.55;;;16.70;99.90;;;;;;5032455;28;20060;-59
2023/10/01 04:18:33;;;;;;;2.58;1.75;;;16.80;99.90;;;;;;5031149;28;20046;-58
2023/10/01 04:23:32;;;;;;;1.90;1.50;;;16.80;99.90;;;;;;5042637;28;20049;-59
2023/10/01 04:26:05;;;;;;;3.90;1.58;;;16.80;99.90;;;;;;5044402;28;20512;-59
2023/10/01 04:28:44;;;;;;;2.42;1.60;;;16.80;99.90;;;;;;5050172;28;20488;-58
2023/10/01 04:31:42;;;;;;;1.52;1.40;;;16.80;99.90;;;;;;5050954;28;20056;-59
2023/10/01 04:34:11;;;;;;;2.10;1.55;;;16.80;99.90;;;;;;5050809;28;20068;-58
2023/10/01 04:36:43;;;;;;;3.38;1.77;;;16.80;99.90;;;;;;5038457;28;20054;-58
2023/10/01 04:39:11;;;;;;;4.28;1.70;;;16.90;99.90;;;;;;5030840;28;20041;-58
2023/10/01 04:41:39;;;;;;;2.65;1.58;;;16.90;99.90;;;;;;5033028;28;20056;-58
2023/10/01 04:44:07;;;;;;;1.60;1.42;;;16.90;99.90;;;;;;5034728;28;20068;-58
2023/10/01 04:46:45;;;;;;;3.65;1.70;;;16.90;99.90;;;;;;5034570;28;20046;-58
2023/10/01 04:49:39;;;;;;;4.38;1.98;;;16.80;99.90;;;;;;5010241;28;20486;-59
2023/10/01 04:52:10;;;;;;;4.47;1.50;;;16.80;99.90;;;;;;5013941;28;20060;-58
2023/10/01 04:54:44;;;;;;;5.00;1.60;;;16.90;99.90;;;;;;5050987;28;20045;-59
2023/10/01 04:57:13;;;;;;;3.53;1.45;;;16.80;99.90;;;;;;5037917;28;20057;-59
2023/10/01 04:59:56;;;;;;;2.15;1.13;;;16.80;99.90;;;;;;5051003;28;20048;-59
2023/10/01 05:02:26;;;;;;;4.35;1.30;;;16.80;99.90;;;;;;5030578;28;20054;-59
2023/10/01 05:05:09;;;;;;;1.73;1.27;;;16.90;99.90;;;;;;5007874;28;20065;-59
2023/10/01 05:07:38;;;;;;;2.05;1.00;;;16.80;99.90;;;;;;5013744;28;20068;-59
2023/10/01 05:10:09;;;;;;;2.15;1.15;;;16.80;99.90;;;;;;5030262;28;20050;-58
2023/10/01 05:12:43;;;;;;;2.13;1.10;;;16.90;99.90;;;;;;5027005;28;20378;-58
2023/10/01 05:15:24;;;;;;;3.25;0.98;;;16.90;99.90;;;;;;5027381;28;20060;-58
2023/10/01 05:17:55;;;;;;;3.03;1.10;;;16.90;99.90;;;;;;5025121;28;20038;-59
2023/10/01 05:20:25;;;;;;;1.67;1.00;;;16.90;99.90;;;;;;5022149;28;20045;-59
2023/10/01 05:22:54;;;;;;;3.03;1.00;;;16.80;99.90;;;;;;5032731;28;20041;-59
2023/10/01 05:25:24;;;;;;;1.10;1.00;;;16.90;99.90;;;;;;5046845;28;20041;-59
2023/10/01 05:27:58;;;;;;;2.40;1.10;;;16.80;99.90;;;;;;5045276;28;20049;-60
2023/10/01 05:30:34;;;;;;;3.47;1.08;;;16.90;99.90;;;;;;5033534;28;20045;-60
2023/10/01 05:33:05;;;;;;;3.83;1.20;;;16.80;99.90;;;;;;5022617;28;20046;-60
2023/10/01 05:35:44;;;;;;;2.00;1.20;;;16.90;99.90;;;;;;5007679;28;20469;-59
2023/10/01 05:38:14;;;;;;;3.13;1.20;;;16.90;99.90;;;;;;5027300;28;20041;-59
2023/10/01 05:40:44;;;;;;;1.92;1.17;;;16.90;99.90;;;;;;5032169;28;20041;-60
2023/10/01 05:43:13;;;;;;;;;;;16.90;99.90;;;;;;5029911;28;20049;-59
2023/10/01 05:45:52;;;;;;;2.40;1.40;;;16.90;99.90;;;;;;5030239;28;19921;-60
2023/10/01 05:48:23;;;;;;;3.22;1.40;;;16.90;99.90;;;;;;5023668;28;20056;-63
2023/10/01 05:50:51;;;;;;;2.85;1.48;;;16.90;99.90;;;;;;5022664;28;20053;-60
2023/10/01 05:53:20;;;;;;;3.57;1.63;;;16.90;99.90;;;;;;5029975;28;20056;-60
2023/10/01 05:55:49;;;;;;;2.78;1.70;;;16.90;99.90;;;;;;5025254;28;20064;-60
2023/10/01 05:58:17;;;;;;;3.50;1.42;;;16.90;99.90;;;;;;5026214;28;20781;-60
2023/10/01 06:00:56;;;;;;;3.15;1.35;;;16.90;99.90;;;;;;5026683;28;20045;-60
2023/10/01 06:03:25;;;;;;;1.90;1.50;;;16.90;99.90;;;;;;5030621;28;20042;-60
2023/10/01 06:05:59;;;;;;;1.38;1.23;;;16.90;99.90;;;;;;5009966;28;20046;-60
2023/10/01 06:08:33;;;;;;;4.00;1.55;;;17.00;99.90;;;;;;5035281;28;20057;-60
2023/10/01 06:11:13;;;;;;;2.40;1.50;;;17.00;99.90;;;;;;5030503;28;20053;-60
2023/10/01 06:13:49;;;;;;;1.90;1.10;;;17.00;99.90;;;;;;5025704;28;20076;-60
2023/10/01 06:16:25;;;;;;;2.03;0.98;;;17.00;99.90;;;;;;5026288;28;20056;-59
2023/10/01 06:18:57;;;;;;;1.58;0.90;;;17.00;99.90;;;;;;5020543;28;20057;-60
2023/10/01 06:21:31;;;;;;;5.03;1.17;;;17.00;99.90;;;;;;5027269;28;20397;-59
2023/10/01 06:24:04;;;;;;;1.45;0.90;;;17.00;99.90;;;;;;5033490;28;20045;-60
2023/10/01 06:26:50;;;;;;;1.38;0.73;;;17.00;99.90;;;;;;5031080;28;20052;-59
2023/10/01 06:29:19;;;;;;;2.03;0.90;;;17.00;99.90;;;;;;5046411;28;20053;-60
2023/10/01 06:31:58;;;;;;;0.80;0.80;;;17.00;99.90;;;;;;5010714;28;20137;-60
2023/10/01 06:34:39;;;;;;;3.30;1.95;;;17.00;99.90;;;;;;5022655;28;20057;-59
2023/10/01 06:37:07;;;;;;;3.95;0.70;;;17.00;99.90;;;;;;5009733;28;20042;-60
2023/10/01 06:39:40;;;;;;;1.85;0.60;;;17.00;99.90;;;;;;5027225;28;20548;-60
2023/10/01 06:42:23;;;;;;;0.75;0.50;;;17.00;99.90;;;;;;5027556;28;20050;-60
2023/10/01 06:44:55;;;;;;;1.23;0.55;;;17.00;99.90;;;;;;5029107;28;20065;-60
2023/10/01 06:47:26;;;;;;;0.55;0.50;;;17.00;99.90;;;;;;5027354;28;20461;-60
2023/10/01 06:50:14;;;;;;;2.45;0.50;;;17.00;99.90;;;;;;5012674;28;20046;-59
2023/10/01 06:52:42;;;;;;;1.10;0.35;;;17.00;99.90;;;;;;5024962;28;20045;-59
2023/10/01 06:55:25;;;;;;;0.30;0.30;;;17.10;99.90;;;;;;5026893;28;20056;-59
2023/10/01 06:57:55;;;;;;;1.05;0.45;;;17.10;99.90;;;;;;5032810;28;20534;-60
2023/10/01 07:00:24;;;;;;;1.08;0.45;;;17.10;99.90;;;;;;5048046;28;20064;-60
2023/10/01 07:02:53;;;;;;;3.30;0.60;;;17.10;99.90;;;;;;5044301;28;20045;-60
2023/10/01 07:05:22;;;;;;;1.35;0.50;;;17.10;99.90;;;;;;5026283;28;20049;-60
2023/10/01 07:07:50;;;;;;;2.63;0.82;;;17.10;99.90;;;;;;5026929;28;20136;-60
2023/10/01 07:10:19;;;;;;;0.30;0.30;;;17.10;99.90;;;;;;5028420;28;20616;-59
2023/10/01 07:12:58;;;;;;;1.75;0.38;;;17.10;99.90;;;;;;5037146;28;20041;-59
2023/10/01 07:15:26;;;;;;;0.30;0.30;;;17.10;99.90;;;;;;5048237;28;20047;-59
2023/10/01 07:17:57;;;;;;;1.65;0.40;;;17.10;99.90;;;;;;5029763;28;20397;-59
2023/10/01 07:20:26;;;;;;;0.75;0.75;;;17.10;99.90;;;;;;5024329;28;20049;-59
2023/10/01 07:22:54;;;;;;;0.30;0.30;;;17.10;99.90;;;;;;5035085;28;20045;-59
2023/10/01 07:25:42;;;;;;;1.50;0.40;;;17.10;99.90;;;;;;5028186;28;20049;-59
2023/10/01 07:28:13;;;;;;;0.95;0.40;;;17.10;99.90;;;;;;5027803;28;20041;-59
2023/10/01 07:30:45;;;;;;;0.88;0.30;;;17.20;99.90;;;;;;5028142;28;20386;-59
2023/10/01 07:33:14;;;;;;;0.35;0.35;;;17.20;99.90;;;;;;5040399;28;20433;-59
2023/10/01 07:35:44;;;;;;;0.50;0.40;;;17.20;99.90;;;;;;5010794;28;20050;-59
2023/10/01 07:38:16;;;;;;;1.83;0.63;;;17.20;99.90;;;;;;5024186;28;20063;-59
2023/10/01 07:41:07;;;;;;;1.73;0.50;;;17.20;99.90;;;;;;5027295;28;20046;-59
2023/10/01 07:43:39;;;;;;;1.63;0.77;;;17.20;99.90;;;;;;5027477;28;20072;-59
2023/10/01 07:46:07;;;;;;;1.95;0.70;;;17.20;99.90;;;;;;5027760;28;20497;-59
2023/10/01 07:48:47;;;;;;;2.72;0.50;;;17.20;99.90;;;;;;5038246;28;20397;-59
2023/10/01 07:51:28;;;;;;;2.65;0.80;;;17.20;99.90;;;;;;5008521;28;20042;-59
2023/10/01 07:54:02;;;;;;;0.95;0.55;;;17.20;99.90;;;;;;5033093;28;20052;-60
2023/10/01 07:56:32;;;;;;;1.02;0.70;;;17.20;99.90;;;;;;5024183;28;20053;-58
2023/10/01 08:04:58;;;;;;;4.10;1.00;;;17.20;99.90;;;;;;5022408;28;20058;-58
2023/10/01 08:07:39;;;;;;;1.98;0.90;;;17.20;99.90;;;;;;5011042;28;20045;-60
2023/10/01 08:10:16;;;;;;;1.05;0.90;;;17.20;99.90;;;;;;5047557;28;20063;-60
2023/10/01 08:15:38;;;;;;;1.58;1.35;;;17.20;99.90;;;;;;5043758;28;20452;-60
2023/10/01 08:20:59;;;;;;;3.08;1.60;;;17.30;99.90;;;;;;5014986;28;20501;-59
2023/10/01 08:23:31;;;;;;;2.35;1.88;;;17.30;99.90;;;;;;5041063;28;20473;-60
2023/10/01 08:26:39;;;;;;;3.72;2.00;;;17.30;99.90;;;;;;5032032;28;20057;-60
2023/10/01 08:28:56;;;;;;;2.47;2.00;;;17.30;99.90;;;;;;5043409;28;20041;-60
2023/10/01 08:34:23;;;;;;;2.35;1.20;;;17.40;99.90;;;;;;5018142;28;20056;-59
2023/10/01 08:36:56;;;;;;;2.65;1.40;;;17.40;99.90;;;;;;5029690;28;20041;-60
2023/10/01 08:39:34;;;;;;;;;;;17.40;99.90;;;;;;5049268;28;20052;-59
2023/10/01 08:42:09;;;;;;;2.35;1.27;;;17.40;99.90;;;;;;5048740;28;19928;-60
2023/10/01 08:44:45;;;;;;;4.07;1.30;;;17.50;99.90;;;;;;5031074;28;20076;-60
2023/10/01 08:47:36;;;;;;;3.38;1.25;;;17.50;99.90;;;;;;5031223;28;20068;-60
2023/10/01 08:53:10;;;;;;;2.08;1.30;;;17.60;99.90;;;;;;5026697;28;20049;-60
2023/10/01 09:00:56;;;;;;;1.33;1.20;;;17.80;99.90;;;;;;5029735;28;20041;-60
2023/10/01 09:03:29;;;;;;;2.70;1.15;;;17.80;99.90;;;;;;5037200;28;20053;-60
2023/10/01 09:06:03;;;;;;;1.73;1.20;;;17.80;99.90;;;;;;4997086;28;20054;-60
2023/10/01 09:08:42;;;;;;;1.10;1.00;;;17.80;99.90;;;;;;5021053;28;20393;-60
2023/10/01 09:11:19;;;;;;;1.15;1.05;;;17.80;99.90;;;;;;5030527;28;20068;-60
2023/10/01 09:13:58;;;;;;;2.95;1.38;;;17.80;99.90;;;;;;5040292;28;20053;-60
2023/10/01 09:16:33;;;;;;;1.33;0.82;;;17.80;99.90;;;;;;5030835;28;20056;-60
2023/10/01 09:19:05;;;;;;;2.38;1.10;;;17.90;99.90;;;;;;5029978;28;20053;-60
2023/10/01 09:21:38;;;;;;;1.27;0.95;;;17.90;99.90;;;;;;5014279;28;20528;-60
2023/10/01 09:24:34;;;;;;;2.97;1.20;;;17.90;99.90;;;;;;5036239;28;20053;-60
2023/10/01 09:27:24;;;;;;;2.38;1.00;;;17.90;99.90;;;;;;5029183;28;20056;-60
2023/10/01 09:30:26;;;;;;;2.45;0.90;;;17.90;99.90;;;;;;5017751;28;20398;-60
2023/10/01 09:32:53;;;;;;;2.85;0.95;;;17.90;99.90;;;;;;5015326;28;20045;-60
2023/10/01 09:35:30;;;;;;;1.50;0.60;;;17.90;99.90;;;;;;5025959;28;20052;-60
2023/10/01 09:38:11;;;;;;;1.13;0.70;;;17.90;99.90;;;;;;5029793;28;20054;-60
2023/10/01 09:40:45;;;;;;;0.80;0.80;;;17.90;99.90;;;;;;5028741;28;20519;-60
2023/10/01 09:43:33;;;;;;;0.70;0.70;;;17.90;99.90;;;;;;5039995;28;20037;-60
2023/10/01 09:46:02;;;;;;;1.27;0.80;;;18.00;99.90;;;;;;5030050;28;20064;-59
2023/10/01 09:48:33;;;;;;;1.40;0.68;;;17.90;99.90;;;;;;5027944;28;20061;-60
2023/10/01 09:51:13;;;;;;;1.35;0.90;;;17.90;99.90;;;;;;5018305;28;20053;-60
2023/10/01 09:54:00;;;;;;;0.73;0.70;;;17.90;99.90;;;;;;5033061;28;20046;-60
2023/10/01 09:56:30;;;;;;;2.05;0.63;;;17.90;99.90;;;;;;5029893;28;20394;-60
2023/10/01 09:59:07;;;;;;;3.08;0.70;;;17.90;99.90;;;;;;5020108;28;20048;-60
2023/10/01 10:01:40;;;;;;;2.55;0.75;;;17.90;99.90;;;;;;5029744;28;20115;-59
2023/10/01 10:04:19;;;;;;;2.17;1.00;;;17.90;99.90;;;;;;5027902;28;20044;-60
2023/10/01 10:06:59;;;;;;;2.05;0.90;;;17.90;99.90;;;;;;5013284;28;20041;-60
2023/10/01 10:09:30;;;;;;;1.80;1.20;;;17.80;99.90;;;;;;5017404;28;20053;-59
2023/10/01 10:12:07;;;;;;;5.95;1.35;;;17.80;99.90;;;;;;5025156;28;20482;-59
2023/10/01 10:14:36;;;;;;;1.92;1.20;;;17.80;99.90;;;;;;5022207;28;20056;-59
2023/10/01 10:17:18;;;;;;;3.17;1.10;;;17.80;99.90;;;;;;5019914;28;20042;-59
2023/10/01 10:20:16;;;;;;;2.25;0.85;;;17.80;99.90;;;;;;5021515;28;20041;-59
2023/10/01 10:23:29;;;;;;;0.93;0.82;;;17.80;99.90;;;;;;5033547;28;20041;-59
2023/10/01 10:26:12;;;;;;;2.25;1.10;;;17.80;99.90;;;;;;5018772;28;20041;-59
2023/10/01 10:28:54;;;;;;;4.18;1.33;;;17.80;99.90;;;;;;5024547;28;20053;-60
2023/10/01 10:31:36;;;;;;;1.80;1.23;;;17.80;99.90;;;;;;5022484;28;20061;-59
2023/10/01 10:34:22;;;;;;;3.30;1.77;;;17.80;99.90;;;;;;5041836;28;20053;-59
2023/10/01 10:36:51;;;;;;;1.70;1.48;;;17.80;99.90;;;;;;5009573;28;20034;-59
2023/10/01 10:39:50;;;;;;;5.95;2.17;;;17.80;99.90;;;;;;5023972;28;20072;-58
2023/10/01 10:42:33;;;;;;;2.97;1.70;;;17.80;99.90;;;;;;5026146;28;20048;-59
2023/10/01 10:45:21;;;;;;;2.63;1.73;;;17.80;99.90;;;;;;5010526;28;20053;-59
2023/10/01 10:48:03;;;;;;;;;;;17.80;99.90;;;;;;4995998;28;20105;-59
2023/10/01 10:50:57;;;;;;;4.25;2.10;;;17.80;99.90;;;;;;5027838;28;19921;-59
2023/10/01 10:53:45;;;;;;;3.42;2.03;;;17.80;99.90;;;;;;5021613;28;20037;-59
2023/10/01 10:56:14;;;;;;;2.38;1.85;;;17.80;99.90;;;;;;5009936;28;20509;-60
2023/10/01 10:59:07;;;;;;;3.53;1.80;;;17.90;99.90;;;;;;4997655;28;20053;-58
2023/10/01 11:01:46;;;;;;;2.47;1.63;;;17.90;99.90;;;;;;5010708;28;20505;-58
2023/10/01 11:04:18;;;;;;;2.92;1.90;;;17.90;99.90;;;;;;5015984;28;20057;-59
2023/10/01 11:07:04;;;;;;;2.17;1.90;;;17.90;99.90;;;;;;5013145;28;20050;-58
2023/10/01 11:09:33;;;;;;;3.05;1.98;;;17.90;99.90;;;;;;5025764;28;20060;-58
2023/10/01 11:12:19;;;;;;;6.25;2.00;;;18.00;99.90;;;;;;5023474;28;20041;-59
2023/10/01 11:15:23;;;;;;;2.20;2.00;;;18.00;99.90;;;;;;5022767;28;20052;-59
2023/10/01 11:18:01;;;;;;;2.25;1.70;;;18.00;99.90;;;;;;5020071;28;20052;-59
2023/10/01 11:20:33;;;;;;;4.00;2.10;;;18.00;99.90;;;;;;5009041;28;20867;-59
2023/10/01 11:23:01;;;;;;;2.78;2.00;;;18.00;99.90;;;;;;5022661;28;20508;-59
2023/10/01 11:25:28;;;;;;;3.88;2.10;;;18.00;99.90;;;;;;5028542;28;20049;-60
2023/10/01 11:28:05;;;;;;;4.05;1.90;;;18.00;99.90;;;;;;5027198;28;20045;-59
2023/10/01 11:30:43;;;;;;;4.50;1.80;;;18.00;99.90;;;;;;5024830;28;20057;-59
2023/10/01 11:38:50;;;;;;;4.80;2.22;;;18.10;99.90;;;;;;5022784;28;20057;-60
2023/10/01 11:41:38;;;;;;;;;;;18.10;99.90;;;;;;5028760;28;20053;-59
2023/10/01 11:44:07;;;;;;;3.40;2.05;;;18.20;99.90;;;;;;5010528;28;19926;-59
2023/10/01 11:46:39;;;;;;;2.83;2.05;;;18.20;99.90;;;;;;5022522;28;20068;-59
2023/10/01 11:49:07;;;;;;;2.85;2.03;;;18.20;99.90;;;;;;5021695;28;20061;-59
2023/10/01 11:51:48;;;;;;;2.70;1.90;;;18.20;99.90;;;;;;5028036;28;20052;-59
2023/10/01 11:54:17;;;;;;;1.63;1.52;;;18.30;99.90;;;;;;5026272;28;20397;-59
2023/10/01 11:57:04;;;;;;;2.88;1.83;;;18.30;99.90;;;;;;5026797;28;20056;-59
2023/10/01 11:59:38;;;;;;;4.43;1.75;;;18.30;99.90;;;;;;5024931;28;20524;-59
2023/10/01 12:02:21;;;;;;;2.22;1.38;;;18.30;99.90;;;;;;5022037;28;20049;-59
2023/10/01 12:04:59;;;;;;;2.58;1.70;;;18.30;99.90;;;;;;5027749;28;20056;-59
2023/10/01 12:07:34;;;;;;;1.77;1.40;;;18.30;99.90;;;;;;5024851;28;20489;-59
2023/10/01 12:10:04;;;;;;;1.20;1.10;;;18.30;99.90;;;;;;5038562;28;20049;-59
2023/10/01 12:12:37;;;;;;;3.08;1.20;;;18.40;99.90;;;;;;5021994;28;20628;-59
2023/10/01 12:17:57;;;;;;;1.17;1.08;;;18.40;99.90;;;;;;5015090;28;20392;-59
2023/10/01 12:20:31;;;;;;;1.10;0.93;;;18.40;99.90;;;;;;5026819;28;20491;-59
2023/10/01 12:23:12;;;;;;;2.85;0.88;;;18.50;99.90;;;;;;5026956;28;20385;-59
2023/10/01 12:25:52;;;;;;;;;;;18.50;99.90;;;;;;5027049;28;20050;-59
2023/10/01 12:28:25;;;;;;;2.22;0.80;;;18.60;99.90;;;;;;5016895;28;19921;-60
2023/10/01 12:31:23;;;;;;;0.65;0.65;;;18.50;99.90;;;;;;5021386;28;20057;-60
2023/10/01 12:33:50;;;;;;;1.38;0.80;;;18.50;99.90;;;;;;5016434;28;20384;-60
2023/10/01 12:41:56;;;;;;;1.27;0.60;;;18.70;99.90;;;;;;5014637;28;20080;-60
2023/10/01 12:44:28;;;;;;;1.88;0.73;;;18.70;99.90;;;;;;5047271;28;20045;-59
2023/10/01 12:47:10;;;;;;;2.28;0.45;;;18.70;99.90;;;;;;5017093;28;20096;-60
2023/10/01 12:49:42;;;;;;;0.70;0.50;;;18.70;99.90;;;;;;5012542;28;20052;-60
2023/10/01 12:52:14;;;;;;;0.40;0.40;;;18.80;99.90;;;;;;5020591;28;20041;-60
2023/10/01 12:54:42;;;;;;;1.23;0.60;;;18.80;99.90;;;;;;5021050;28;20052;-60
2023/10/01 12:57:12;;;;;;;1.10;0.50;;;18.80;99.90;;;;;;5023943;28;20061;-60
2023/10/01 12:59:41;;;;;;;0.60;0.50;;;18.80;99.90;;;;;;5023146;28;20508;-60
2023/10/01 13:02:22;;;;;;;0.30;0.30;;;18.80;99.90;;;;;;5025109;28;20052;-60
2023/10/01 13:07:42;;;;;;;0.25;0.25;;;18.80;99.90;;;;;;5011070;28;20049;-60
2023/10/01 13:10:10;;;;;;;;;;;18.90;99.90;;;;;;5037369;28;20049;-59
2023/10/01 13:12:44;;;;;;;0.20;0.20;;;18.90;99.90;;;;;;5023130;28;19925;-60
2023/10/01 13:15:15;;;;;;;0.82;0.30;;;18.90;99.90;;;;;;5006394;28;20045;-59
2023/10/01 13:17:48;;;;;;;0.10;0.10;;;18.80;99.90;;;;;;5024634;28;20079;-59
2023/10/01 13:20:22;;;;;;;0.20;0.20;;;18.80;99.90;;;;;;5026233;28;20070;-59
2023/10/01 13:22:59;;;;;;;0.70;0.10;;;18.80;99.90;;;;;;5029397;28;20041;-59
2023/10/01 13:25:27;;;;;;;0.52;0.20;;;18.70;99.90;;;;;;5027279;28;20057;-60
2023/10/01 13:28:01;;;;;;;0.70;0.20;;;18.70;99.90;;;;;;5022887;28;20068;-60
2023/10/01 13:30:31;;;;;;;0.40;0.20;;;18.60;99.90;;;;;;5027127;28;20052;-60
2023/10/01 13:33:13;;;;;;;0.22;0.22;;;18.60;99.90;;;;;;5029866;28;20060;-59
2023/10/01 13:35:56;;;;;;;1.15;0.20;;;18.60;99.90;;;;;;5026587;28;20072;-60
2023/10/01 14:08:44;;;;;;;0.30;0.30;;;18.70;99.90;;;;;;5014892;28;20060;-58
2023/10/01 14:11:26;;;;;;;3.75;0.20;;;18.70;99.90;;;;;;5027677;28;20317;-59
2023/10/01 14:13:55;;;;;;;1.88;0.28;;;18.80;99.90;;;;;;5038682;28;20625;-59
2023/10/01 14:16:23;;;;;;;1.20;0.10;;;18.80;99.90;;;;;;5045848;28;20424;-59
2023/10/01 14:18:57;;;;;;;0.50;0.20;;;18.80;99.90;;;;;;5024028;28;20038;-59
2023/10/01 14:21:29;;;;;;;0.10;0.10;;;18.80;99.90;;;;;;5024433;28;20049;-59
2023/10/01 14:24:21;;;;;;;0.60;0.10;;;18.80;99.90;;;;;;5010376;28;20856;-59
2023/10/01 14:26:50;;;;;;;0.10;0.10;;;18.80;99.90;;;;;;5021013;28;20513;-59
2023/10/01 14:29:33;;;;;;;1.10;0.20;;;18.70;99.90;;;;;;5016035;28;20042;-59
2023/10/01 14:32:10;;;;;;;3.20;0.20;;;18.70;99.90;;;;;;5022420;28;20049;-59
2023/10/01 14:34:38;;;;;;;0.10;0.10;;;18.70;99.90;;;;;;5022892;28;20052;-59
2023/10/01 14:37:07;;;;;;;1.17;0.10;;;18.70;99.90;;;;;;5025922;28;20053;-59
2023/10/01 14:39:35;;;;;;;0.25;0.10;;;18.70;99.90;;;;;;5024103;28;20529;-59
2023/10/01 14:42:06;;;;;;;0.10;0.10;;;18.80;99.90;;;;;;5025334;28;20057;-59
2023/10/01 14:44:42;;;;;;;0.65;0.10;;;18.70;99.90;;;;;;5039055;28;20037;-59
2023/10/01 14:47:17;;;;;;;0.10;0.10;;;18.80;99.90;;;;;;5005574;28;20061;-59
2023/10/01 14:49:45;;;;;;;2.20;0.25;;;18.80;99.90;;;;;;5019426;28;20054;-60
2023/10/01 14:52:22;;;;;;;0.38;0.20;;;18.80;99.90;;;;;;5007687;28;20054;-60
2023/10/01 14:54:50;;;;;;;0.65;0.20;;;18.80;99.90;;;;;;5004981;28;20046;-60
2023/10/01 14:57:18;;;;;;;0.10;0.10;;;18.80;99.90;;;;;;5021714;28;20052;-60
2023/10/01 14:59:46;;;;;;;1.20;0.20;;;18.80;99.90;;;;;;5023123;28;20061;-60